sensor_id;sensor_type;location;lat;lon;timestamp;P1;durP1;ratioP1;P2;durP2;ratioP2
69894;SDS011;57172;52.034;5.090;2023-11-21T00:02:21;33.50;;;11.15;;
69894;SDS011;57172;52.034;5.090;2023-11-21T00:04:48;31.48;;;10.80;;
69894;SDS011;57172;52.034;5.090;2023-11-21T00:07:15;33.78;;;10.63;;
69894;SDS011;57172;52.034;5.090;2023-11-21T00:09:42;31.98;;;10.70;;
69894;SDS011;57172;52.034;5.090;2023-11-21T00:12:09;32.30;;;11.03;;
69894;SDS011;57172;52.034;5.090;2023-11-21T00:14:37;28.33;;;10.55;;
69894;SDS011;57172;52.034;5.090;2023-11-21T00:17:05;33.40;;;10.88;;
69894;SDS011;57172;52.034;5.090;2023-11-21T00:19:32;33.08;;;11.48;;
69894;SDS011;57172;52.034;5.090;2023-11-21T00:22:01;32.20;;;10.52;;
69894;SDS011;57172;52.034;5.090;2023-11-21T00:24:28;33.87;;;10.87;;
69894;SDS011;57172;52.034;5.090;2023-11-21T00:26:55;31.70;;;10.85;;
69894;SDS011;57172;52.034;5.090;2023-11-21T00:29:22;30.83;;;10.48;;
69894;SDS011;57172;52.034;5.090;2023-11-21T00:31:50;31.73;;;11.05;;
69894;SDS011;57172;52.034;5.090;2023-11-21T00:34:17;31.02;;;11.05;;
69894;SDS011;57172;52.034;5.090;2023-11-21T00:36:44;28.13;;;10.20;;
69894;SDS011;57172;52.034;5.090;2023-11-21T00:39:10;25.90;;;10.05;;
69894;SDS011;57172;52.034;5.090;2023-11-21T00:41:39;26.70;;;9.88;;
69894;SDS011;57172;52.034;5.090;2023-11-21T00:44:06;30.02;;;10.13;;
69894;SDS011;57172;52.034;5.090;2023-11-21T00:46:33;26.92;;;10.35;;
69894;SDS011;57172;52.034;5.090;2023-11-21T00:49:00;25.20;;;9.23;;
69894;SDS011;57172;52.034;5.090;2023-11-21T00:51:27;27.27;;;9.68;;
69894;SDS011;57172;52.034;5.090;2023-11-21T00:53:54;23.00;;;9.50;;
69894;SDS011;57172;52.034;5.090;2023-11-21T00:56:21;26.38;;;9.40;;
69894;SDS011;57172;52.034;5.090;2023-11-21T00:58:49;23.75;;;8.95;;
69894;SDS011;57172;52.034;5.090;2023-11-21T01:01:18;25.97;;;9.53;;
69894;SDS011;57172;52.034;5.090;2023-11-21T01:03:46;20.50;;;8.55;;
69894;SDS011;57172;52.034;5.090;2023-11-21T01:06:13;23.17;;;9.13;;
69894;SDS011;57172;52.034;5.090;2023-11-21T01:08:41;20.77;;;8.35;;
69894;SDS011;57172;52.034;5.090;2023-11-21T01:11:10;23.98;;;8.38;;
69894;SDS011;57172;52.034;5.090;2023-11-21T01:13:39;20.33;;;8.27;;
69894;SDS011;57172;52.034;5.090;2023-11-21T01:16:07;17.85;;;8.30;;
69894;SDS011;57172;52.034;5.090;2023-11-21T01:18:34;20.88;;;8.13;;
69894;SDS011;57172;52.034;5.090;2023-11-21T01:21:02;19.42;;;8.68;;
69894;SDS011;57172;52.034;5.090;2023-11-21T01:23:30;18.52;;;8.13;;
69894;SDS011;57172;52.034;5.090;2023-11-21T01:25:57;21.40;;;8.20;;
69894;SDS011;57172;52.034;5.090;2023-11-21T01:28:24;18.67;;;7.93;;
69894;SDS011;57172;52.034;5.090;2023-11-21T01:30:51;17.58;;;7.97;;
69894;SDS011;57172;52.034;5.090;2023-11-21T01:33:18;17.40;;;8.05;;
69894;SDS011;57172;52.034;5.090;2023-11-21T01:35:45;18.70;;;8.20;;
69894;SDS011;57172;52.034;5.090;2023-11-21T01:38:13;16.50;;;7.93;;
69894;SDS011;57172;52.034;5.090;2023-11-21T01:40:41;22.45;;;8.07;;
69894;SDS011;57172;52.034;5.090;2023-11-21T01:43:08;17.25;;;7.65;;
69894;SDS011;57172;52.034;5.090;2023-11-21T01:45:35;20.40;;;7.78;;
69894;SDS011;57172;52.034;5.090;2023-11-21T01:48:02;13.32;;;6.90;;
69894;SDS011;57172;52.034;5.090;2023-11-21T01:50:30;15.60;;;7.90;;
69894;SDS011;57172;52.034;5.090;2023-11-21T01:52:57;21.80;;;8.18;;
69894;SDS011;57172;52.034;5.090;2023-11-21T01:55:24;21.52;;;9.40;;
69894;SDS011;57172;52.034;5.090;2023-11-21T01:57:57;22.40;;;9.18;;
69894;SDS011;57172;52.034;5.090;2023-11-21T02:00:24;20.90;;;9.70;;
69894;SDS011;57172;52.034;5.090;2023-11-21T02:02:54;20.23;;;9.17;;
69894;SDS011;57172;52.034;5.090;2023-11-21T02:05:23;25.00;;;9.77;;
69894;SDS011;57172;52.034;5.090;2023-11-21T02:07:50;25.20;;;10.43;;
69894;SDS011;57172;52.034;5.090;2023-11-21T02:10:19;25.85;;;9.60;;
69894;SDS011;57172;52.034;5.090;2023-11-21T02:12:50;26.83;;;10.55;;
69894;SDS011;57172;52.034;5.090;2023-11-21T02:15:18;25.20;;;10.70;;
69894;SDS011;57172;52.034;5.090;2023-11-21T02:17:50;27.55;;;10.57;;
69894;SDS011;57172;52.034;5.090;2023-11-21T02:20:20;28.08;;;10.63;;
69894;SDS011;57172;52.034;5.090;2023-11-21T02:22:55;29.52;;;10.50;;
69894;SDS011;57172;52.034;5.090;2023-11-21T02:25:30;24.13;;;10.20;;
69894;SDS011;57172;52.034;5.090;2023-11-21T02:28:01;25.57;;;11.23;;
69894;SDS011;57172;52.034;5.090;2023-11-21T02:30:29;26.17;;;10.10;;
69894;SDS011;57172;52.034;5.090;2023-11-21T02:33:01;25.65;;;10.25;;
69894;SDS011;57172;52.034;5.090;2023-11-21T02:35:29;22.88;;;9.90;;
69894;SDS011;57172;52.034;5.090;2023-11-21T02:37:58;28.98;;;10.15;;
69894;SDS011;57172;52.034;5.090;2023-11-21T02:40:25;26.97;;;9.80;;
69894;SDS011;57172;52.034;5.090;2023-11-21T02:42:53;25.73;;;10.18;;
69894;SDS011;57172;52.034;5.090;2023-11-21T02:45:20;28.67;;;10.13;;
69894;SDS011;57172;52.034;5.090;2023-11-21T02:47:49;29.95;;;10.85;;
69894;SDS011;57172;52.034;5.090;2023-11-21T02:50:16;23.58;;;9.93;;
69894;SDS011;57172;52.034;5.090;2023-11-21T02:52:45;27.43;;;10.43;;
69894;SDS011;57172;52.034;5.090;2023-11-21T02:55:13;27.27;;;9.70;;
69894;SDS011;57172;52.034;5.090;2023-11-21T02:57:40;25.50;;;9.93;;
69894;SDS011;57172;52.034;5.090;2023-11-21T03:00:08;29.25;;;10.07;;
69894;SDS011;57172;52.034;5.090;2023-11-21T03:02:41;25.42;;;10.27;;
69894;SDS011;57172;52.034;5.090;2023-11-21T03:05:09;27.10;;;10.07;;
69894;SDS011;57172;52.034;5.090;2023-11-21T03:07:36;27.25;;;10.10;;
69894;SDS011;57172;52.034;5.090;2023-11-21T03:10:08;24.45;;;9.90;;
69894;SDS011;57172;52.034;5.090;2023-11-21T03:12:37;25.00;;;10.02;;
69894;SDS011;57172;52.034;5.090;2023-11-21T03:15:08;22.35;;;9.13;;
69894;SDS011;57172;52.034;5.090;2023-11-21T03:17:36;27.10;;;10.33;;
69894;SDS011;57172;52.034;5.090;2023-11-21T03:20:04;25.65;;;9.80;;
69894;SDS011;57172;52.034;5.090;2023-11-21T03:22:31;23.52;;;9.25;;
69894;SDS011;57172;52.034;5.090;2023-11-21T03:24:59;24.75;;;9.50;;
69894;SDS011;57172;52.034;5.090;2023-11-21T03:27:26;25.50;;;9.48;;
69894;SDS011;57172;52.034;5.090;2023-11-21T03:29:53;28.40;;;9.30;;
69894;SDS011;57172;52.034;5.090;2023-11-21T03:32:21;25.85;;;9.98;;
69894;SDS011;57172;52.034;5.090;2023-11-21T03:34:54;26.48;;;9.43;;
69894;SDS011;57172;52.034;5.090;2023-11-21T03:37:23;28.15;;;9.65;;
69894;SDS011;57172;52.034;5.090;2023-11-21T03:39:51;24.27;;;9.13;;
69894;SDS011;57172;52.034;5.090;2023-11-21T03:42:18;26.33;;;9.07;;
69894;SDS011;57172;52.034;5.090;2023-11-21T03:44:45;30.45;;;9.55;;
69894;SDS011;57172;52.034;5.090;2023-11-21T03:47:13;24.98;;;9.30;;
69894;SDS011;57172;52.034;5.090;2023-11-21T03:49:40;24.73;;;9.93;;
69894;SDS011;57172;52.034;5.090;2023-11-21T03:52:06;22.15;;;8.98;;
69894;SDS011;57172;52.034;5.090;2023-11-21T03:54:34;31.60;;;10.03;;
69894;SDS011;57172;52.034;5.090;2023-11-21T03:57:01;29.58;;;9.45;;
69894;SDS011;57172;52.034;5.090;2023-11-21T03:59:28;22.70;;;8.68;;
69894;SDS011;57172;52.034;5.090;2023-11-21T04:01:56;26.25;;;9.18;;
69894;SDS011;57172;52.034;5.090;2023-11-21T04:04:23;23.15;;;8.55;;
69894;SDS011;57172;52.034;5.090;2023-11-21T04:06:50;25.87;;;9.03;;
69894;SDS011;57172;52.034;5.090;2023-11-21T04:09:20;22.17;;;8.90;;
69894;SDS011;57172;52.034;5.090;2023-11-21T04:11:48;27.38;;;8.77;;
69894;SDS011;57172;52.034;5.090;2023-11-21T04:14:15;28.70;;;8.68;;
69894;SDS011;57172;52.034;5.090;2023-11-21T04:16:43;21.77;;;8.25;;
69894;SDS011;57172;52.034;5.090;2023-11-21T04:19:10;26.00;;;9.40;;
69894;SDS011;57172;52.034;5.090;2023-11-21T04:21:41;25.80;;;9.02;;
69894;SDS011;57172;52.034;5.090;2023-11-21T04:24:08;28.08;;;9.10;;
69894;SDS011;57172;52.034;5.090;2023-11-21T04:26:35;25.58;;;8.90;;
69894;SDS011;57172;52.034;5.090;2023-11-21T04:29:03;27.85;;;9.40;;
69894;SDS011;57172;52.034;5.090;2023-11-21T04:31:31;22.13;;;8.93;;
69894;SDS011;57172;52.034;5.090;2023-11-21T04:33:58;24.30;;;8.90;;
69894;SDS011;57172;52.034;5.090;2023-11-21T04:36:25;24.88;;;9.02;;
69894;SDS011;57172;52.034;5.090;2023-11-21T04:38:53;24.50;;;8.55;;
69894;SDS011;57172;52.034;5.090;2023-11-21T04:41:19;25.90;;;9.38;;
69894;SDS011;57172;52.034;5.090;2023-11-21T04:43:46;25.13;;;9.03;;
69894;SDS011;57172;52.034;5.090;2023-11-21T04:46:13;25.70;;;8.70;;
69894;SDS011;57172;52.034;5.090;2023-11-21T04:48:40;23.13;;;8.52;;
69894;SDS011;57172;52.034;5.090;2023-11-21T04:51:07;27.17;;;8.50;;
69894;SDS011;57172;52.034;5.090;2023-11-21T04:53:34;27.00;;;8.80;;
69894;SDS011;57172;52.034;5.090;2023-11-21T04:56:01;23.17;;;8.73;;
69894;SDS011;57172;52.034;5.090;2023-11-21T04:58:29;29.80;;;8.95;;
69894;SDS011;57172;52.034;5.090;2023-11-21T05:00:57;27.83;;;8.82;;
69894;SDS011;57172;52.034;5.090;2023-11-21T05:03:24;25.02;;;8.77;;
69894;SDS011;57172;52.034;5.090;2023-11-21T05:05:52;26.50;;;8.68;;
69894;SDS011;57172;52.034;5.090;2023-11-21T05:08:19;25.30;;;9.43;;
69894;SDS011;57172;52.034;5.090;2023-11-21T05:10:48;31.67;;;8.73;;
69894;SDS011;57172;52.034;5.090;2023-11-21T05:13:16;24.33;;;8.82;;
69894;SDS011;57172;52.034;5.090;2023-11-21T05:15:43;28.30;;;8.70;;
69894;SDS011;57172;52.034;5.090;2023-11-21T05:18:11;29.35;;;8.50;;
69894;SDS011;57172;52.034;5.090;2023-11-21T05:20:40;23.00;;;8.33;;
69894;SDS011;57172;52.034;5.090;2023-11-21T05:23:07;25.58;;;8.70;;
69894;SDS011;57172;52.034;5.090;2023-11-21T05:25:34;24.15;;;8.27;;
69894;SDS011;57172;52.034;5.090;2023-11-21T05:28:06;24.15;;;8.15;;
69894;SDS011;57172;52.034;5.090;2023-11-21T05:30:33;23.05;;;7.82;;
69894;SDS011;57172;52.034;5.090;2023-11-21T05:32:59;24.00;;;8.07;;
69894;SDS011;57172;52.034;5.090;2023-11-21T05:35:26;25.90;;;8.20;;
69894;SDS011;57172;52.034;5.090;2023-11-21T05:37:53;23.70;;;7.88;;
69894;SDS011;57172;52.034;5.090;2023-11-21T05:40:20;28.50;;;8.52;;
69894;SDS011;57172;52.034;5.090;2023-11-21T05:42:49;25.02;;;8.02;;
69894;SDS011;57172;52.034;5.090;2023-11-21T05:45:18;26.70;;;8.57;;
69894;SDS011;57172;52.034;5.090;2023-11-21T05:47:45;30.10;;;8.52;;
69894;SDS011;57172;52.034;5.090;2023-11-21T05:50:14;25.80;;;8.25;;
69894;SDS011;57172;52.034;5.090;2023-11-21T05:52:42;28.48;;;8.10;;
69894;SDS011;57172;52.034;5.090;2023-11-21T05:55:10;24.27;;;8.00;;
69894;SDS011;57172;52.034;5.090;2023-11-21T05:57:38;30.47;;;8.53;;
69894;SDS011;57172;52.034;5.090;2023-11-21T06:00:07;23.17;;;8.15;;
69894;SDS011;57172;52.034;5.090;2023-11-21T06:02:41;30.52;;;8.43;;
69894;SDS011;57172;52.034;5.090;2023-11-21T06:05:09;26.98;;;7.97;;
69894;SDS011;57172;52.034;5.090;2023-11-21T06:07:37;27.52;;;8.25;;
69894;SDS011;57172;52.034;5.090;2023-11-21T06:10:05;25.50;;;7.87;;
69894;SDS011;57172;52.034;5.090;2023-11-21T06:12:35;31.15;;;8.90;;
69894;SDS011;57172;52.034;5.090;2023-11-21T06:15:03;29.35;;;8.40;;
69894;SDS011;57172;52.034;5.090;2023-11-21T06:17:31;30.83;;;8.85;;
69894;SDS011;57172;52.034;5.090;2023-11-21T06:19:58;21.02;;;8.57;;
69894;SDS011;57172;52.034;5.090;2023-11-21T06:22:25;29.47;;;8.10;;
69894;SDS011;57172;52.034;5.090;2023-11-21T06:24:52;28.23;;;8.65;;
69894;SDS011;57172;52.034;5.090;2023-11-21T06:27:19;25.00;;;8.15;;
69894;SDS011;57172;52.034;5.090;2023-11-21T06:29:46;22.25;;;8.15;;
69894;SDS011;57172;52.034;5.090;2023-11-21T06:32:13;26.45;;;8.38;;
69894;SDS011;57172;52.034;5.090;2023-11-21T06:34:43;29.60;;;8.40;;
69894;SDS011;57172;52.034;5.090;2023-11-21T06:37:10;23.85;;;8.43;;
69894;SDS011;57172;52.034;5.090;2023-11-21T06:39:37;35.85;;;8.90;;
69894;SDS011;57172;52.034;5.090;2023-11-21T06:42:04;23.90;;;8.15;;
69894;SDS011;57172;52.034;5.090;2023-11-21T06:44:31;27.75;;;8.57;;
69894;SDS011;57172;52.034;5.090;2023-11-21T06:46:59;24.17;;;8.70;;
69894;SDS011;57172;52.034;5.090;2023-11-21T06:49:26;24.10;;;8.65;;
69894;SDS011;57172;52.034;5.090;2023-11-21T06:51:53;24.85;;;8.50;;
69894;SDS011;57172;52.034;5.090;2023-11-21T06:54:21;24.38;;;8.15;;
69894;SDS011;57172;52.034;5.090;2023-11-21T06:56:49;28.10;;;9.20;;
69894;SDS011;57172;52.034;5.090;2023-11-21T06:59:16;23.43;;;8.27;;
69894;SDS011;57172;52.034;5.090;2023-11-21T07:01:43;28.27;;;8.88;;
69894;SDS011;57172;52.034;5.090;2023-11-21T07:04:11;26.77;;;9.18;;
69894;SDS011;57172;52.034;5.090;2023-11-21T07:06:38;22.58;;;8.73;;
69894;SDS011;57172;52.034;5.090;2023-11-21T07:09:04;27.02;;;9.13;;
69894;SDS011;57172;52.034;5.090;2023-11-21T07:11:31;28.67;;;9.17;;
69894;SDS011;57172;52.034;5.090;2023-11-21T07:13:59;24.50;;;8.90;;
69894;SDS011;57172;52.034;5.090;2023-11-21T07:16:26;27.15;;;9.13;;
69894;SDS011;57172;52.034;5.090;2023-11-21T07:18:53;22.52;;;9.13;;
69894;SDS011;57172;52.034;5.090;2023-11-21T07:21:21;25.02;;;8.40;;
69894;SDS011;57172;52.034;5.090;2023-11-21T07:23:48;24.43;;;8.93;;
69894;SDS011;57172;52.034;5.090;2023-11-21T07:26:15;22.15;;;8.45;;
69894;SDS011;57172;52.034;5.090;2023-11-21T07:28:42;21.85;;;8.40;;
69894;SDS011;57172;52.034;5.090;2023-11-21T07:31:09;20.42;;;7.82;;
69894;SDS011;57172;52.034;5.090;2023-11-21T07:33:37;27.13;;;8.10;;
69894;SDS011;57172;52.034;5.090;2023-11-21T07:36:04;26.30;;;8.57;;
69894;SDS011;57172;52.034;5.090;2023-11-21T07:38:31;24.23;;;8.52;;
69894;SDS011;57172;52.034;5.090;2023-11-21T07:40:59;21.95;;;8.50;;
69894;SDS011;57172;52.034;5.090;2023-11-21T07:43:27;19.65;;;7.88;;
69894;SDS011;57172;52.034;5.090;2023-11-21T07:46:01;23.88;;;8.32;;
69894;SDS011;57172;52.034;5.090;2023-11-21T07:48:32;21.43;;;7.80;;
69894;SDS011;57172;52.034;5.090;2023-11-21T07:51:00;25.05;;;7.32;;
69894;SDS011;57172;52.034;5.090;2023-11-21T07:53:29;27.13;;;7.70;;
69894;SDS011;57172;52.034;5.090;2023-11-21T07:55:57;23.90;;;7.05;;
69894;SDS011;57172;52.034;5.090;2023-11-21T07:58:31;21.48;;;7.05;;
69894;SDS011;57172;52.034;5.090;2023-11-21T08:01:02;18.10;;;7.07;;
69894;SDS011;57172;52.034;5.090;2023-11-21T08:03:29;17.90;;;6.57;;
69894;SDS011;57172;52.034;5.090;2023-11-21T08:05:57;18.05;;;6.60;;
69894;SDS011;57172;52.034;5.090;2023-11-21T08:08:26;16.67;;;6.20;;
69894;SDS011;57172;52.034;5.090;2023-11-21T08:10:53;16.00;;;6.15;;
69894;SDS011;57172;52.034;5.090;2023-11-21T08:13:25;17.63;;;6.53;;
69894;SDS011;57172;52.034;5.090;2023-11-21T08:15:55;15.85;;;5.82;;
69894;SDS011;57172;52.034;5.090;2023-11-21T08:18:24;17.80;;;5.28;;
69894;SDS011;57172;52.034;5.090;2023-11-21T08:20:51;15.02;;;5.20;;
69894;SDS011;57172;52.034;5.090;2023-11-21T08:23:18;16.15;;;5.10;;
69894;SDS011;57172;52.034;5.090;2023-11-21T08:25:45;17.07;;;4.87;;
69894;SDS011;57172;52.034;5.090;2023-11-21T08:28:12;16.77;;;4.60;;
69894;SDS011;57172;52.034;5.090;2023-11-21T08:30:42;14.00;;;4.68;;
69894;SDS011;57172;52.034;5.090;2023-11-21T08:33:10;15.43;;;5.13;;
69894;SDS011;57172;52.034;5.090;2023-11-21T08:35:40;15.32;;;5.10;;
69894;SDS011;57172;52.034;5.090;2023-11-21T08:38:06;14.40;;;5.27;;
69894;SDS011;57172;52.034;5.090;2023-11-21T08:40:34;15.35;;;4.93;;
69894;SDS011;57172;52.034;5.090;2023-11-21T08:43:01;11.10;;;4.22;;
69894;SDS011;57172;52.034;5.090;2023-11-21T08:45:31;11.32;;;4.00;;
69894;SDS011;57172;52.034;5.090;2023-11-21T08:48:00;13.10;;;4.70;;
69894;SDS011;57172;52.034;5.090;2023-11-21T08:50:28;15.50;;;4.60;;
69894;SDS011;57172;52.034;5.090;2023-11-21T08:52:55;15.27;;;4.55;;
69894;SDS011;57172;52.034;5.090;2023-11-21T08:55:22;16.52;;;4.72;;
69894;SDS011;57172;52.034;5.090;2023-11-21T08:57:49;16.50;;;4.80;;
69894;SDS011;57172;52.034;5.090;2023-11-21T09:00:17;13.50;;;4.57;;
69894;SDS011;57172;52.034;5.090;2023-11-21T09:02:45;13.90;;;4.47;;
69894;SDS011;57172;52.034;5.090;2023-11-21T09:05:13;14.20;;;4.68;;
69894;SDS011;57172;52.034;5.090;2023-11-21T09:07:41;19.90;;;5.15;;
69894;SDS011;57172;52.034;5.090;2023-11-21T09:10:09;14.65;;;4.70;;
69894;SDS011;57172;52.034;5.090;2023-11-21T09:12:36;13.80;;;4.90;;
69894;SDS011;57172;52.034;5.090;2023-11-21T09:15:05;13.27;;;4.90;;
69894;SDS011;57172;52.034;5.090;2023-11-21T09:17:33;14.50;;;4.93;;
69894;SDS011;57172;52.034;5.090;2023-11-21T09:20:01;12.05;;;5.05;;
69894;SDS011;57172;52.034;5.090;2023-11-21T09:22:30;13.15;;;5.00;;
69894;SDS011;57172;52.034;5.090;2023-11-21T09:24:58;12.60;;;4.93;;
69894;SDS011;57172;52.034;5.090;2023-11-21T09:27:25;14.60;;;5.17;;
69894;SDS011;57172;52.034;5.090;2023-11-21T09:29:52;14.77;;;5.05;;
69894;SDS011;57172;52.034;5.090;2023-11-21T09:32:20;15.05;;;5.15;;
69894;SDS011;57172;52.034;5.090;2023-11-21T09:34:48;12.52;;;4.68;;
69894;SDS011;57172;52.034;5.090;2023-11-21T09:37:20;12.60;;;5.13;;
69894;SDS011;57172;52.034;5.090;2023-11-21T09:39:47;14.00;;;5.03;;
69894;SDS011;57172;52.034;5.090;2023-11-21T09:42:20;11.57;;;5.13;;
69894;SDS011;57172;52.034;5.090;2023-11-21T09:44:59;14.70;;;5.13;;
69894;SDS011;57172;52.034;5.090;2023-11-21T09:47:27;12.98;;;5.20;;
69894;SDS011;57172;52.034;5.090;2023-11-21T09:49:54;13.68;;;5.90;;
69894;SDS011;57172;52.034;5.090;2023-11-21T09:52:27;13.80;;;5.30;;
69894;SDS011;57172;52.034;5.090;2023-11-21T09:54:55;12.27;;;5.18;;
69894;SDS011;57172;52.034;5.090;2023-11-21T09:57:24;13.90;;;5.53;;
69894;SDS011;57172;52.034;5.090;2023-11-21T09:59:52;12.20;;;5.43;;
69894;SDS011;57172;52.034;5.090;2023-11-21T10:02:27;16.70;;;6.13;;
69894;SDS011;57172;52.034;5.090;2023-11-21T10:04:59;12.53;;;5.63;;
69894;SDS011;57172;52.034;5.090;2023-11-21T10:07:27;15.52;;;5.60;;
69894;SDS011;57172;52.034;5.090;2023-11-21T10:09:57;12.32;;;5.00;;
69894;SDS011;57172;52.034;5.090;2023-11-21T10:12:25;14.45;;;5.40;;
69894;SDS011;57172;52.034;5.090;2023-11-21T10:14:54;12.52;;;4.88;;
69894;SDS011;57172;52.034;5.090;2023-11-21T10:17:26;11.33;;;4.57;;
69894;SDS011;57172;52.034;5.090;2023-11-21T10:20:03;9.43;;;4.45;;
69894;SDS011;57172;52.034;5.090;2023-11-21T10:22:38;11.45;;;4.63;;
69894;SDS011;57172;52.034;5.090;2023-11-21T10:25:08;11.13;;;4.72;;
69894;SDS011;57172;52.034;5.090;2023-11-21T10:27:38;10.88;;;4.47;;
69894;SDS011;57172;52.034;5.090;2023-11-21T10:30:09;7.57;;;3.90;;
69894;SDS011;57172;52.034;5.090;2023-11-21T10:32:39;8.68;;;4.15;;
69894;SDS011;57172;52.034;5.090;2023-11-21T10:35:07;8.05;;;3.65;;
69894;SDS011;57172;52.034;5.090;2023-11-21T10:37:37;9.27;;;4.00;;
69894;SDS011;57172;52.034;5.090;2023-11-21T10:40:08;8.30;;;3.58;;
69894;SDS011;57172;52.034;5.090;2023-11-21T10:42:39;9.27;;;3.87;;
69894;SDS011;57172;52.034;5.090;2023-11-21T10:45:07;9.70;;;3.90;;
69894;SDS011;57172;52.034;5.090;2023-11-21T10:47:41;9.20;;;3.83;;
69894;SDS011;57172;52.034;5.090;2023-11-21T10:50:10;8.23;;;3.90;;
69894;SDS011;57172;52.034;5.090;2023-11-21T10:52:41;10.70;;;4.63;;
69894;SDS011;57172;52.034;5.090;2023-11-21T10:55:16;10.40;;;3.87;;
69894;SDS011;57172;52.034;5.090;2023-11-21T10:57:48;9.20;;;3.83;;
69894;SDS011;57172;52.034;5.090;2023-11-21T11:00:17;8.63;;;3.35;;
69894;SDS011;57172;52.034;5.090;2023-11-21T11:02:50;7.63;;;3.50;;
69894;SDS011;57172;52.034;5.090;2023-11-21T11:05:19;7.93;;;3.22;;
69894;SDS011;57172;52.034;5.090;2023-11-21T11:07:48;7.60;;;3.57;;
69894;SDS011;57172;52.034;5.090;2023-11-21T11:10:21;8.23;;;3.60;;
69894;SDS011;57172;52.034;5.090;2023-11-21T11:12:56;9.65;;;3.90;;
69894;SDS011;57172;52.034;5.090;2023-11-21T11:15:24;10.02;;;3.95;;
69894;SDS011;57172;52.034;5.090;2023-11-21T11:17:53;9.85;;;3.80;;
69894;SDS011;57172;52.034;5.090;2023-11-21T11:20:29;10.17;;;4.03;;
69894;SDS011;57172;52.034;5.090;2023-11-21T11:26:20;9.18;;;3.88;;
69894;SDS011;57172;52.034;5.090;2023-11-21T11:29:00;9.63;;;4.40;;
69894;SDS011;57172;52.034;5.090;2023-11-21T11:34:29;12.13;;;4.37;;
69894;SDS011;57172;52.034;5.090;2023-11-21T11:37:07;9.43;;;4.50;;
69894;SDS011;57172;52.034;5.090;2023-11-21T11:39:35;13.25;;;5.07;;
69894;SDS011;57172;52.034;5.090;2023-11-21T11:42:06;11.43;;;4.80;;
69894;SDS011;57172;52.034;5.090;2023-11-21T11:47:35;15.70;;;5.73;;
69894;SDS011;57172;52.034;5.090;2023-11-21T11:50:05;16.80;;;5.88;;
69894;SDS011;57172;52.034;5.090;2023-11-21T11:52:49;14.20;;;5.80;;
69894;SDS011;57172;52.034;5.090;2023-11-21T11:55:18;14.93;;;5.78;;
69894;SDS011;57172;52.034;5.090;2023-11-21T11:57:53;13.73;;;6.10;;
69894;SDS011;57172;52.034;5.090;2023-11-21T12:02:58;14.43;;;6.18;;
69894;SDS011;57172;52.034;5.090;2023-11-21T12:05:31;14.07;;;5.97;;
69894;SDS011;57172;52.034;5.090;2023-11-21T12:08:00;14.25;;;6.35;;
69894;SDS011;57172;52.034;5.090;2023-11-21T12:10:35;16.40;;;6.68;;
69894;SDS011;57172;52.034;5.090;2023-11-21T12:13:07;15.40;;;6.33;;
69894;SDS011;57172;52.034;5.090;2023-11-21T12:15:36;16.08;;;6.32;;
69894;SDS011;57172;52.034;5.090;2023-11-21T12:18:05;14.88;;;6.50;;
69894;SDS011;57172;52.034;5.090;2023-11-21T12:20:33;18.08;;;6.90;;
69894;SDS011;57172;52.034;5.090;2023-11-21T12:23:06;17.08;;;6.75;;
69894;SDS011;57172;52.034;5.090;2023-11-21T12:25:35;17.37;;;6.63;;
69894;SDS011;57172;52.034;5.090;2023-11-21T12:28:03;15.90;;;6.50;;
69894;SDS011;57172;52.034;5.090;2023-11-21T12:30:31;16.45;;;6.93;;
69894;SDS011;57172;52.034;5.090;2023-11-21T12:33:05;15.93;;;6.55;;
69894;SDS011;57172;52.034;5.090;2023-11-21T12:35:35;19.15;;;6.90;;
69894;SDS011;57172;52.034;5.090;2023-11-21T12:38:03;15.17;;;6.10;;
69894;SDS011;57172;52.034;5.090;2023-11-21T12:40:35;12.63;;;5.50;;
69894;SDS011;57172;52.034;5.090;2023-11-21T12:43:02;14.13;;;5.65;;
69894;SDS011;57172;52.034;5.090;2023-11-21T12:45:31;12.93;;;5.85;;
69894;SDS011;57172;52.034;5.090;2023-11-21T12:48:05;13.80;;;6.30;;
69894;SDS011;57172;52.034;5.090;2023-11-21T12:50:38;12.93;;;5.90;;
69894;SDS011;57172;52.034;5.090;2023-11-21T12:53:09;13.02;;;5.93;;
69894;SDS011;57172;52.034;5.090;2023-11-21T12:55:43;14.50;;;6.63;;
69894;SDS011;57172;52.034;5.090;2023-11-21T12:58:17;22.20;;;7.93;;
69894;SDS011;57172;52.034;5.090;2023-11-21T13:00:47;17.10;;;7.63;;
69894;SDS011;57172;52.034;5.090;2023-11-21T13:03:15;20.33;;;7.80;;
69894;SDS011;57172;52.034;5.090;2023-11-21T13:05:48;20.10;;;8.43;;
69894;SDS011;57172;52.034;5.090;2023-11-21T13:08:21;19.88;;;7.43;;
69894;SDS011;57172;52.034;5.090;2023-11-21T13:10:52;18.38;;;7.82;;
69894;SDS011;57172;52.034;5.090;2023-11-21T13:13:22;19.52;;;7.90;;
69894;SDS011;57172;52.034;5.090;2023-11-21T13:15:52;21.23;;;7.27;;
69894;SDS011;57172;52.034;5.090;2023-11-21T13:18:23;14.95;;;6.75;;
69894;SDS011;57172;52.034;5.090;2023-11-21T13:20:56;16.50;;;7.45;;
69894;SDS011;57172;52.034;5.090;2023-11-21T13:23:40;15.38;;;6.50;;
69894;SDS011;57172;52.034;5.090;2023-11-21T13:26:08;13.20;;;6.30;;
69894;SDS011;57172;52.034;5.090;2023-11-21T13:28:36;13.63;;;6.43;;
69894;SDS011;57172;52.034;5.090;2023-11-21T13:31:04;13.77;;;5.82;;
69894;SDS011;57172;52.034;5.090;2023-11-21T13:33:49;13.02;;;5.90;;
69894;SDS011;57172;52.034;5.090;2023-11-21T13:36:22;13.35;;;5.93;;
69894;SDS011;57172;52.034;5.090;2023-11-21T13:38:50;12.88;;;6.20;;
69894;SDS011;57172;52.034;5.090;2023-11-21T13:41:21;11.90;;;5.50;;
69894;SDS011;57172;52.034;5.090;2023-11-21T13:43:57;12.23;;;5.53;;
69894;SDS011;57172;52.034;5.090;2023-11-21T13:46:32;14.02;;;5.75;;
69894;SDS011;57172;52.034;5.090;2023-11-21T13:49:04;10.95;;;4.95;;
69894;SDS011;57172;52.034;5.090;2023-11-21T13:51:36;11.75;;;4.68;;
69894;SDS011;57172;52.034;5.090;2023-11-21T13:54:14;8.17;;;3.90;;
69894;SDS011;57172;52.034;5.090;2023-11-21T13:56:41;9.55;;;4.60;;
69894;SDS011;57172;52.034;5.090;2023-11-21T13:59:11;9.10;;;3.90;;
69894;SDS011;57172;52.034;5.090;2023-11-21T14:01:49;9.05;;;3.67;;
69894;SDS011;57172;52.034;5.090;2023-11-21T14:04:26;9.32;;;3.90;;
69894;SDS011;57172;52.034;5.090;2023-11-21T14:06:56;8.30;;;3.70;;
69894;SDS011;57172;52.034;5.090;2023-11-21T14:09:25;7.13;;;3.03;;
69894;SDS011;57172;52.034;5.090;2023-11-21T14:11:59;7.40;;;3.10;;
69894;SDS011;57172;52.034;5.090;2023-11-21T14:14:29;6.60;;;2.83;;
69894;SDS011;57172;52.034;5.090;2023-11-21T14:16:56;6.15;;;2.88;;
69894;SDS011;57172;52.034;5.090;2023-11-21T14:19:25;7.67;;;3.00;;
69894;SDS011;57172;52.034;5.090;2023-11-21T14:21:59;7.65;;;2.67;;
69894;SDS011;57172;52.034;5.090;2023-11-21T14:24:26;6.13;;;3.13;;
69894;SDS011;57172;52.034;5.090;2023-11-21T14:26:55;7.20;;;3.30;;
69894;SDS011;57172;52.034;5.090;2023-11-21T14:29:22;7.10;;;3.50;;
69894;SDS011;57172;52.034;5.090;2023-11-21T14:31:50;7.37;;;3.17;;
69894;SDS011;57172;52.034;5.090;2023-11-21T14:34:20;7.75;;;3.55;;
69894;SDS011;57172;52.034;5.090;2023-11-21T14:36:49;9.35;;;3.85;;
69894;SDS011;57172;52.034;5.090;2023-11-21T14:39:16;9.43;;;4.03;;
69894;SDS011;57172;52.034;5.090;2023-11-21T14:41:52;11.38;;;5.05;;
69894;SDS011;57172;52.034;5.090;2023-11-21T14:44:22;11.17;;;5.30;;
69894;SDS011;57172;52.034;5.090;2023-11-21T14:46:52;11.88;;;5.30;;
69894;SDS011;57172;52.034;5.090;2023-11-21T14:49:24;15.18;;;6.13;;
69894;SDS011;57172;52.034;5.090;2023-11-21T14:51:53;14.85;;;6.50;;
69894;SDS011;57172;52.034;5.090;2023-11-21T14:54:23;18.00;;;7.18;;
69894;SDS011;57172;52.034;5.090;2023-11-21T14:57:09;18.40;;;7.87;;